Time;durP1;ratioP1;P1;durP2;ratioP2;P2;SDS_P1;SDS_P2;PMS_P1;PMS_P2;Temp;Humidity;BMP_temperature;BMP_pressure;BME280_temperature;BME280_humidity;BME280_pressure;Samples;Min_cycle;Max_cycle;Signal;HPM_P1;HPM_P2
2021/05/19 00:01:43;;;;;;;1.63;1.52;;;11.00;99.90;;;;;;4858835;29;20501;-53
2021/05/19 00:04:10;;;;;;;2.88;1.50;;;11.00;99.90;;;;;;4858437;29;20029;-45
2021/05/19 00:06:36;;;;;;;1.85;1.75;;;11.00;99.90;;;;;;4858642;29;20480;-44
2021/05/19 00:09:06;;;;;;;13.73;1.90;;;11.00;99.90;;;;;;4858576;29;20036;-46
2021/05/19 00:11:32;;;;;;;4.50;1.50;;;11.00;99.90;;;;;;4859629;29;20048;-44
2021/05/19 00:13:57;;;;;;;1.95;1.67;;;10.80;99.90;;;;;;4858378;29;20120;-44
2021/05/19 00:16:23;;;;;;;2.92;1.73;;;10.80;99.90;;;;;;4858656;29;20109;-45
2021/05/19 00:18:49;;;;;;;3.83;2.03;;;10.70;99.90;;;;;;4857326;29;20034;-46
2021/05/19 00:21:14;;;;;;;2.50;1.92;;;10.70;99.90;;;;;;4861843;29;20041;-53
2021/05/19 00:23:40;;;;;;;2.35;2.22;;;10.70;99.90;;;;;;4862223;29;20495;-48
2021/05/19 00:26:05;;;;;;;1.70;1.60;;;10.50;99.90;;;;;;4862205;29;20475;-44
2021/05/19 00:28:31;;;;;;;1.60;1.60;;;10.50;99.90;;;;;;4862024;29;20038;-47
2021/05/19 00:31:00;;;;;;;1.75;1.65;;;10.40;99.90;;;;;;4862138;29;20029;-49
2021/05/19 00:33:25;;;;;;;2.38;1.98;;;10.40;99.90;;;;;;4861618;29;20072;-45
2021/05/19 00:35:51;;;;;;;1.65;1.60;;;10.30;99.90;;;;;;4862003;29;20106;-47
2021/05/19 00:38:18;;;;;;;1.92;1.83;;;10.30;99.90;;;;;;4862644;29;20029;-52
2021/05/19 00:40:44;;;;;;;1.90;1.80;;;10.20;99.90;;;;;;4862041;29;20098;-44
2021/05/19 00:43:09;;;;;;;1.88;1.77;;;10.20;99.90;;;;;;4862040;29;20082;-46
2021/05/19 00:45:35;;;;;;;1.90;1.80;;;10.20;99.90;;;;;;4862188;29;20030;-47
2021/05/19 00:48:01;;;;;;;2.10;1.52;;;10.20;99.90;;;;;;4861476;29;20071;-51
2021/05/19 00:50:28;;;;;;;1.90;1.80;;;10.20;99.90;;;;;;4861546;29;20048;-50
2021/05/19 00:52:54;;;;;;;2.42;1.60;;;10.10;99.90;;;;;;4861560;29;20452;-44
2021/05/19 00:55:20;;;;;;;2.55;2.03;;;10.00;99.90;;;;;;4861573;29;20029;-47
2021/05/19 00:57:48;;;;;;;1.95;1.88;;;10.00;99.90;;;;;;4860149;29;20403;-45
2021/05/19 01:00:15;;;;;;;2.10;2.00;;;10.10;99.90;;;;;;4861231;29;20021;-46
2021/05/19 01:02:42;;;;;;;1.88;1.77;;;10.20;99.90;;;;;;4861261;29;20036;-48
2021/05/19 01:05:17;;;;;;;2.33;2.15;;;10.00;99.90;;;;;;4861150;29;20380;-45
2021/05/19 01:09:34;;;;;;;;;;;9.90;99.90;;;;;;4862003;29;20550;-47
2021/05/19 01:10:29;;;;;;;2.15;1.95;;;9.90;99.90;;;;;;4860948;29;19908;-44
2021/05/19 01:12:54;;;;;;;2.00;1.88;;;9.90;99.90;;;;;;4861074;29;20550;-44
2021/05/19 01:15:20;;;;;;;3.92;1.90;;;10.00;99.90;;;;;;4861283;29;20105;-45
2021/05/19 01:17:47;;;;;;;2.90;2.00;;;9.90;99.90;;;;;;4860530;29;20089;-48
2021/05/19 01:20:14;;;;;;;2.47;2.28;;;9.90;99.90;;;;;;4861030;29;20531;-44
2021/05/19 01:22:39;;;;;;;3.20;2.00;;;9.80;99.90;;;;;;4861050;29;20456;-49
2021/05/19 01:25:05;;;;;;;2.53;2.00;;;9.80;99.90;;;;;;4860815;29;20026;-46
2021/05/19 01:27:31;;;;;;;1.90;1.80;;;9.70;99.90;;;;;;4860934;29;20077;-45
2021/05/19 01:29:59;;;;;;;2.03;1.92;;;9.70;99.90;;;;;;4860973;29;20436;-45
2021/05/19 01:32:25;;;;;;;2.33;2.13;;;9.60;99.90;;;;;;4859743;29;20086;-49
2021/05/19 01:34:51;;;;;;;2.15;1.88;;;9.70;99.90;;;;;;4860679;29;20108;-46
2021/05/19 01:37:16;;;;;;;2.63;2.25;;;9.60;99.90;;;;;;4860757;29;20121;-48
2021/05/19 01:39:44;;;;;;;2.47;2.28;;;9.50;99.90;;;;;;4860617;29;20056;-44
2021/05/19 01:42:10;;;;;;;3.10;1.88;;;9.50;99.90;;;;;;4861088;29;20033;-45
2021/05/19 01:44:37;;;;;;;2.33;2.08;;;9.40;99.90;;;;;;4860342;29;20405;-45
2021/05/19 01:47:03;;;;;;;1.90;1.80;;;9.40;99.90;;;;;;4860536;29;20033;-44
2021/05/19 01:49:36;;;;;;;2.25;2.15;;;9.40;99.90;;;;;;4860398;29;20034;-45
2021/05/19 01:52:04;;;;;;;2.72;2.53;;;9.50;99.90;;;;;;4860080;29;20048;-46
2021/05/19 01:54:31;;;;;;;2.78;2.58;;;9.50;99.90;;;;;;4860054;29;20077;-48
2021/05/19 01:56:57;;;;;;;2.20;2.10;;;9.50;99.90;;;;;;4859084;29;20384;-47
2021/05/19 01:59:23;;;;;;;2.65;2.45;;;9.50;99.90;;;;;;4858940;29;20510;-51
2021/05/19 02:01:49;;;;;;;3.88;2.33;;;9.50;99.90;;;;;;4860267;29;20037;-44
2021/05/19 02:04:16;;;;;;;4.82;2.22;;;9.50;99.90;;;;;;4860135;29;20021;-47
2021/05/19 02:06:50;;;;;;;2.80;2.30;;;9.60;99.90;;;;;;4860228;29;20029;-44
2021/05/19 02:09:18;;;;;;;2.90;2.65;;;9.60;99.90;;;;;;4860255;29;20449;-44
2021/05/19 02:11:44;;;;;;;2.50;2.22;;;9.60;99.90;;;;;;4860501;29;20422;-52
2021/05/19 02:14:10;;;;;;;2.60;2.40;;;9.60;99.90;;;;;;4858764;29;20026;-50
2021/05/19 02:16:36;;;;;;;2.50;2.40;;;9.70;99.90;;;;;;4860207;29;20028;-46
2021/05/19 02:19:02;;;;;;;2.40;2.20;;;9.70;99.90;;;;;;4860168;29;20068;-47
2021/05/19 02:21:28;;;;;;;2.50;2.35;;;9.80;99.90;;;;;;4860131;29;20048;-46
2021/05/19 02:23:54;;;;;;;2.90;2.70;;;9.80;99.90;;;;;;4859963;29;20029;-49
2021/05/19 02:26:20;;;;;;;2.28;2.17;;;9.80;99.90;;;;;;4861313;29;20053;-49
2021/05/19 02:28:46;;;;;;;2.55;2.45;;;9.80;99.90;;;;;;4861447;29;20432;-48
2021/05/19 02:31:12;;;;;;;2.22;2.13;;;9.80;99.90;;;;;;4861310;29;20021;-50
2021/05/19 02:33:38;;;;;;;2.65;2.50;;;9.70;99.90;;;;;;4861129;29;20503;-50
2021/05/19 02:36:04;;;;;;;3.72;2.72;;;9.80;99.90;;;;;;4861316;29;20109;-48
2021/05/19 02:38:31;;;;;;;7.45;2.60;;;9.80;99.90;;;;;;4861299;29;20080;-46
2021/05/19 02:40:56;;;;;;;2.50;2.30;;;9.70;99.90;;;;;;4860950;29;20029;-49
2021/05/19 02:43:22;;;;;;;2.05;1.95;;;9.70;99.90;;;;;;4859148;29;20403;-42
2021/05/19 02:45:49;;;;;;;2.42;2.22;;;9.70;99.90;;;;;;4860853;29;20602;-47
2021/05/19 02:48:14;;;;;;;2.08;1.98;;;9.70;99.90;;;;;;4860740;29;20040;-49
2021/05/19 02:50:40;;;;;;;4.00;2.40;;;9.70;99.90;;;;;;4860706;29;20042;-51
2021/05/19 02:53:06;;;;;;;2.30;2.10;;;9.70;99.90;;;;;;4860225;29;20033;-53
2021/05/19 02:55:31;;;;;;;5.40;2.70;;;9.70;99.90;;;;;;4860850;29;20082;-44
2021/05/19 02:57:57;;;;;;;2.80;2.67;;;9.70;99.90;;;;;;4860578;29;20033;-49
2021/05/19 03:00:23;;;;;;;2.00;1.90;;;9.70;99.90;;;;;;4858910;29;20455;-50
2021/05/19 03:02:49;;;;;;;2.40;2.20;;;9.70;99.90;;;;;;4858783;29;20029;-46
2021/05/19 03:05:15;;;;;;;2.40;2.30;;;9.70;99.90;;;;;;4859698;29;20053;-46
2021/05/19 03:07:40;;;;;;;2.28;2.10;;;9.70;99.90;;;;;;4859692;29;20033;-44
2021/05/19 03:10:07;;;;;;;2.17;2.08;;;9.70;99.90;;;;;;4860195;29;20562;-46
2021/05/19 03:12:33;;;;;;;2.20;2.00;;;9.70;99.90;;;;;;4859591;29;20032;-47
2021/05/19 03:14:58;;;;;;;2.15;2.05;;;9.70;99.90;;;;;;4859172;29;20591;-44
2021/05/19 03:17:24;;;;;;;2.30;2.10;;;9.70;99.90;;;;;;4858742;29;20025;-44
2021/05/19 03:19:50;;;;;;;3.03;2.28;;;9.80;99.90;;;;;;4859093;29;20037;-44
2021/05/19 03:22:15;;;;;;;2.28;2.17;;;9.90;99.90;;;;;;4858378;29;20407;-46
2021/05/19 03:24:42;;;;;;;2.20;2.10;;;9.90;99.90;;;;;;4859064;29;20028;-47
2021/05/19 03:27:07;;;;;;;1.92;1.83;;;9.80;99.90;;;;;;4869228;29;20033;-48
2021/05/19 03:29:33;;;;;;;2.10;2.00;;;9.80;99.90;;;;;;4873535;29;20036;-49
2021/05/19 03:31:58;;;;;;;2.03;1.92;;;9.70;99.90;;;;;;4866063;29;20037;-43
2021/05/19 03:34:24;;;;;;;4.30;2.63;;;9.70;99.90;;;;;;4858617;29;20026;-44
2021/05/19 03:36:50;;;;;;;2.28;2.08;;;9.70;99.90;;;;;;4858542;29;20108;-50
2021/05/19 03:39:15;;;;;;;2.28;2.15;;;9.70;99.90;;;;;;4858795;29;20022;-48
2021/05/19 03:41:41;;;;;;;2.20;2.10;;;9.60;99.90;;;;;;4865970;29;20063;-43
2021/05/19 03:44:07;;;;;;;2.40;2.20;;;9.60;99.90;;;;;;4877161;29;20031;-44
2021/05/19 03:46:33;;;;;;;2.67;2.58;;;9.60;99.90;;;;;;4871249;29;20026;-43
2021/05/19 03:49:00;;;;;;;2.55;2.30;;;9.50;99.90;;;;;;4858541;29;20500;-43
2021/05/19 03:51:28;;;;;;;2.15;2.05;;;9.50;99.90;;;;;;4862880;29;20025;-49
2021/05/19 03:53:53;;;;;;;2.53;2.42;;;9.50;99.90;;;;;;4860563;29;20025;-44
2021/05/19 03:56:20;;;;;;;2.67;2.40;;;9.50;99.90;;;;;;4875753;29;20040;-46
2021/05/19 03:58:46;;;;;;;2.30;2.20;;;9.50;99.90;;;;;;4877591;29;20033;-43
2021/05/19 04:01:12;;;;;;;5.13;2.35;;;9.50;99.90;;;;;;4874852;29;20036;-45
2021/05/19 04:03:37;;;;;;;2.58;2.38;;;9.50;99.90;;;;;;4857086;29;20034;-47
2021/05/19 04:06:03;;;;;;;2.97;2.53;;;9.50;99.90;;;;;;4857848;29;20037;-45
2021/05/19 04:08:37;;;;;;;5.38;3.17;;;9.50;99.90;;;;;;4876442;29;20402;-47
2021/05/19 04:11:04;;;;;;;3.00;2.58;;;9.50;99.90;;;;;;4875115;29;20403;-44
2021/05/19 04:13:30;;;;;;;2.72;2.53;;;9.60;99.90;;;;;;4858075;29;20037;-44
2021/05/19 04:15:55;;;;;;;4.05;3.35;;;9.50;99.90;;;;;;4857101;29;20029;-50
2021/05/19 04:18:21;;;;;;;3.35;2.78;;;9.50;99.90;;;;;;4875527;29;20033;-46
2021/05/19 04:20:48;;;;;;;3.13;2.92;;;9.50;99.90;;;;;;4876710;29;20040;-45
2021/05/19 04:23:14;;;;;;;3.15;2.60;;;9.40;99.90;;;;;;4860311;29;20029;-47
2021/05/19 04:25:40;;;;;;;6.05;3.00;;;9.40;99.90;;;;;;4858311;29;20492;-47
2021/05/19 04:28:06;;;;;;;3.60;3.20;;;9.40;99.90;;;;;;4873661;29;20033;-47
2021/05/19 04:30:32;;;;;;;3.53;3.28;;;9.30;99.90;;;;;;4876617;29;20436;-46
2021/05/19 04:32:57;;;;;;;4.13;3.72;;;9.30;99.90;;;;;;4861486;29;20072;-45
2021/05/19 04:35:23;;;;;;;4.05;3.60;;;9.20;99.90;;;;;;4857840;29;20040;-53
2021/05/19 04:37:48;;;;;;;3.92;3.63;;;9.20;99.90;;;;;;4854290;29;20078;-50
2021/05/19 04:40:14;;;;;;;4.13;3.72;;;9.20;99.90;;;;;;4876725;29;20109;-45
2021/05/19 04:42:40;;;;;;;3.72;3.38;;;9.30;99.90;;;;;;4875131;29;20029;-45
2021/05/19 04:45:06;;;;;;;4.00;3.60;;;9.50;99.90;;;;;;4876479;29;20063;-46
2021/05/19 04:47:32;;;;;;;4.00;3.70;;;9.50;99.90;;;;;;4850035;29;20101;-44
2021/05/19 04:49:57;;;;;;;4.40;4.00;;;9.60;99.90;;;;;;4841333;29;20073;-48
2021/05/19 04:52:23;;;;;;;3.75;2.95;;;9.60;99.90;;;;;;4858775;29;20037;-52
2021/05/19 04:54:49;;;;;;;3.40;3.10;;;9.60;99.90;;;;;;4857756;29;20049;-43
2021/05/19 04:57:15;;;;;;;3.65;2.60;;;9.70;99.90;;;;;;4859004;29;20412;-49
2021/05/19 04:59:41;;;;;;;3.42;2.30;;;9.80;99.90;;;;;;4857817;29;20030;-49
2021/05/19 05:02:06;;;;;;;7.45;2.75;;;9.90;99.90;;;;;;4857422;29;20032;-44
2021/05/19 05:04:32;;;;;;;3.58;3.13;;;9.90;99.90;;;;;;4857711;29;20033;-45
2021/05/19 05:06:57;;;;;;;3.63;2.53;;;9.90;99.90;;;;;;4866361;29;20475;-51
2021/05/19 05:09:25;;;;;;;5.82;2.97;;;10.00;99.90;;;;;;4879908;29;20021;-48
2021/05/19 05:11:50;;;;;;;2.70;2.50;;;10.00;99.90;;;;;;4878176;29;20032;-45
2021/05/19 05:14:16;;;;;;;2.40;2.17;;;10.10;99.90;;;;;;4879549;29;20029;-48
2021/05/19 05:16:41;;;;;;;2.83;2.63;;;10.10;99.90;;;;;;4873108;29;20542;-49
2021/05/19 05:19:07;;;;;;;2.30;2.20;;;10.00;99.90;;;;;;4878997;29;20521;-44
2021/05/19 05:21:33;;;;;;;2.53;2.33;;;10.00;99.90;;;;;;4869339;29;20041;-48
2021/05/19 05:24:00;;;;;;;2.97;2.78;;;9.90;99.90;;;;;;4875224;29;20441;-47
2021/05/19 05:26:25;;;;;;;3.80;3.50;;;9.90;99.90;;;;;;4862668;29;20055;-50
2021/05/19 05:28:52;;;;;;;3.78;3.47;;;9.80;99.90;;;;;;4879713;29;20069;-45
2021/05/19 05:31:17;;;;;;;5.03;4.63;;;9.90;99.90;;;;;;4878782;29;20064;-49
2021/05/19 05:33:43;;;;;;;7.03;5.35;;;9.90;99.90;;;;;;4878677;29;20029;-44
2021/05/19 05:36:08;;;;;;;8.10;5.78;;;9.90;99.90;;;;;;4880134;29;20061;-50
2021/05/19 05:38:34;;;;;;;7.95;6.40;;;10.00;99.90;;;;;;4862904;29;20447;-46
2021/05/19 05:41:00;;;;;;;7.13;6.43;;;10.00;99.90;;;;;;4877010;29;20471;-49
2021/05/19 05:43:25;;;;;;;6.63;6.03;;;10.10;99.90;;;;;;4869773;29;20034;-47
2021/05/19 05:45:51;;;;;;;6.80;5.97;;;10.20;99.90;;;;;;4860722;29;20029;-47
2021/05/19 05:48:17;;;;;;;9.05;5.82;;;10.30;99.90;;;;;;4868287;29;20045;-50
2021/05/19 05:50:42;;;;;;;6.53;5.93;;;10.50;99.90;;;;;;4870433;29;20064;-45
2021/05/19 05:53:08;;;;;;;10.00;6.30;;;10.60;99.90;;;;;;4860169;29;20478;-49
2021/05/19 05:55:33;;;;;;;6.32;5.72;;;10.70;99.90;;;;;;4871943;29;20103;-47
2021/05/19 05:57:59;;;;;;;8.35;5.57;;;10.80;99.90;;;;;;4874517;29;20036;-50
2021/05/19 06:00:25;;;;;;;6.25;5.63;;;11.10;99.90;;;;;;4878661;29;20084;-51
2021/05/19 06:02:51;;;;;;;6.20;5.60;;;11.20;99.90;;;;;;4878774;29;20108;-45
2021/05/19 06:05:16;;;;;;;5.30;4.80;;;11.50;99.90;;;;;;4877916;29;20102;-47
2021/05/19 06:07:42;;;;;;;6.68;4.88;;;11.80;99.90;;;;;;4878810;29;20037;-44
2021/05/19 06:10:09;;;;;;;9.60;4.57;;;12.10;99.90;;;;;;4905080;23;20040;-50
2021/05/19 06:12:35;;;;;;;5.88;4.70;;;12.30;99.90;;;;;;4916796;29;20056;-50
2021/05/19 06:15:00;;;;;;;5.30;4.03;;;12.30;99.90;;;;;;4925132;29;20560;-53
2021/05/19 06:17:26;;;;;;;3.92;3.63;;;12.30;99.90;;;;;;4933221;29;20063;-51
2021/05/19 06:19:52;;;;;;;4.53;4.13;;;12.30;99.90;;;;;;4912984;29;20482;-53
2021/05/19 06:22:18;;;;;;;3.42;3.13;;;12.40;99.90;;;;;;4908139;29;20045;-51
2021/05/19 06:24:43;;;;;;;3.53;3.22;;;12.60;99.90;;;;;;4895520;29;20028;-49
2021/05/19 06:27:09;;;;;;;3.78;2.92;;;12.90;99.90;;;;;;4880476;29;20036;-47
2021/05/19 06:29:35;;;;;;;6.15;2.95;;;13.10;99.90;;;;;;4897145;29;20051;-52
2021/05/19 06:32:00;;;;;;;9.25;2.63;;;13.20;99.90;;;;;;4895866;29;20569;-54
2021/05/19 06:34:26;;;;;;;5.13;3.17;;;13.40;99.90;;;;;;4896125;29;20032;-52
2021/05/19 06:36:52;;;;;;;3.92;3.08;;;13.60;99.90;;;;;;4897021;29;20032;-50
2021/05/19 06:39:22;;;;;;;4.85;3.30;;;13.60;99.90;;;;;;4896933;29;20113;-50
2021/05/19 06:41:51;;;;;;;4.25;3.63;;;13.70;99.90;;;;;;4896941;29;20114;-50
2021/05/19 06:44:18;;;;;;;4.30;3.13;;;13.80;99.90;;;;;;4895986;29;20047;-52
2021/05/19 06:46:44;;;;;;;4.03;3.72;;;13.60;99.90;;;;;;4897869;29;20024;-50
2021/05/19 06:49:10;;;;;;;6.40;4.50;;;13.70;99.90;;;;;;4897629;29;20033;-52
2021/05/19 06:51:35;;;;;;;4.03;3.63;;;13.80;99.90;;;;;;4896436;29;20024;-51
2021/05/19 06:54:01;;;;;;;3.80;3.50;;;14.20;99.90;;;;;;4898946;29;20027;-56
2021/05/19 06:56:27;;;;;;;3.42;3.15;;;14.40;99.90;;;;;;4908347;29;20028;-55
2021/05/19 06:58:54;;;;;;;3.70;3.40;;;14.60;99.40;;;;;;4908097;29;20037;-55
2021/05/19 07:01:20;;;;;;;3.92;3.53;;;14.80;98.90;;;;;;4893963;29;20036;-54
2021/05/19 07:03:47;;;;;;;4.38;3.92;;;14.70;99.00;;;;;;4911668;29;20032;-48
2021/05/19 07:06:12;;;;;;;4.47;4.03;;;14.60;99.10;;;;;;4903882;29;20029;-51
2021/05/19 07:08:38;;;;;;;5.20;4.18;;;14.40;99.30;;;;;;4896595;29;20417;-51
2021/05/19 07:11:04;;;;;;;5.32;3.80;;;14.40;99.70;;;;;;4895768;29;20043;-48
2021/05/19 07:13:29;;;;;;;4.22;3.88;;;14.40;99.90;;;;;;4905500;29;20024;-55
2021/05/19 07:15:56;;;;;;;4.35;3.92;;;14.50;99.80;;;;;;4913813;29;20047;-50
2021/05/19 07:18:21;;;;;;;3.50;3.28;;;14.50;99.70;;;;;;4902596;29;20029;-54
2021/05/19 07:20:47;;;;;;;5.03;4.20;;;14.70;99.70;;;;;;4897589;29;20035;-49
2021/05/19 07:23:13;;;;;;;4.95;3.40;;;15.00;99.30;;;;;;4906459;29;20107;-48
2021/05/19 07:25:40;;;;;;;4.18;3.78;;;15.30;98.60;;;;;;4909611;29;20025;-58
2021/05/19 07:28:08;;;;;;;6.07;4.22;;;15.30;98.70;;;;;;4911468;29;20054;-52
2021/05/19 07:30:34;;;;;;;4.25;3.85;;;15.30;98.50;;;;;;4914772;29;20509;-53
2021/05/19 07:32:59;;;;;;;3.92;3.63;;;15.30;98.10;;;;;;4909523;29;20102;-51
2021/05/19 07:35:26;;;;;;;4.13;3.47;;;15.20;97.70;;;;;;4912691;29;20020;-47
2021/05/19 07:37:52;;;;;;;3.63;3.33;;;15.00;97.70;;;;;;4901311;29;20611;-56
2021/05/19 07:40:17;;;;;;;4.72;3.80;;;14.90;98.20;;;;;;4909656;29;20119;-49
2021/05/19 07:42:43;;;;;;;3.65;3.35;;;15.40;97.80;;;;;;4908800;29;20696;-54
2021/05/19 07:45:10;;;;;;;6.03;3.92;;;16.00;97.60;;;;;;4897601;29;20039;-50
2021/05/19 07:47:36;;;;;;;4.45;4.05;;;16.40;97.00;;;;;;4911856;29;20509;-46
2021/05/19 07:50:02;;;;;;;4.88;3.22;;;17.30;95.20;;;;;;4909480;29;20067;-49
2021/05/19 07:52:27;;;;;;;4.35;2.80;;;18.10;93.50;;;;;;4900500;29;20020;-53
2021/05/19 07:54:53;;;;;;;3.65;3.28;;;18.40;92.40;;;;;;4909204;29;20035;-50
2021/05/19 07:57:41;;;;;;;3.15;2.78;;;18.00;92.60;;;;;;4903943;29;20036;-51
2021/05/19 08:00:11;;;;;;;3.67;2.75;;;17.60;93.20;;;;;;4912270;29;20064;-53
2021/05/19 08:02:37;;;;;;;3.67;3.00;;;17.10;93.70;;;;;;4897383;29;20079;-53
2021/05/19 08:05:02;;;;;;;6.03;3.20;;;16.60;93.90;;;;;;4896646;29;20111;-51
2021/05/19 08:07:28;;;;;;;4.38;3.42;;;16.60;94.10;;;;;;4912194;29;20540;-47
2021/05/19 08:09:53;;;;;;;5.80;3.22;;;16.90;93.90;;;;;;4906349;29;20033;-44
2021/05/19 08:12:19;;;;;;;2.80;2.50;;;16.90;94.10;;;;;;4904694;29;20043;-45
2021/05/19 08:14:45;;;;;;;4.63;3.00;;;17.40;93.50;;;;;;4903724;29;20461;-45
2021/05/19 08:17:12;;;;;;;3.00;2.70;;;17.70;92.70;;;;;;4896009;29;20032;-51
2021/05/19 08:19:37;;;;;;;3.50;3.05;;;18.00;92.40;;;;;;4895140;29;20037;-44
2021/05/19 08:22:03;;;;;;;3.28;2.92;;;18.00;92.00;;;;;;4895872;29;20493;-49
2021/05/19 08:24:28;;;;;;;4.07;2.78;;;18.00;92.40;;;;;;4895345;29;20536;-47
2021/05/19 08:26:54;;;;;;;4.22;2.75;;;17.80;92.30;;;;;;4895731;29;20040;-46
2021/05/19 08:29:20;;;;;;;3.95;3.03;;;17.70;92.10;;;;;;4895854;29;20024;-46
2021/05/19 08:31:45;;;;;;;4.30;3.30;;;17.30;92.20;;;;;;4895607;29;20060;-50
2021/05/19 08:34:12;;;;;;;4.13;2.58;;;16.80;93.60;;;;;;4895300;29;20037;-49
2021/05/19 08:36:37;;;;;;;4.43;3.42;;;16.60;94.20;;;;;;4895622;29;20112;-45
2021/05/19 08:39:03;;;;;;;3.15;2.70;;;16.50;94.20;;;;;;4895847;29;20063;-47
2021/05/19 08:41:29;;;;;;;2.70;2.50;;;16.40;94.60;;;;;;4896710;29;20080;-42
2021/05/19 08:43:54;;;;;;;3.10;2.72;;;16.50;95.10;;;;;;4899329;29;20032;-43
2021/05/19 08:46:20;;;;;;;4.07;2.45;;;16.50;95.20;;;;;;4899539;29;20040;-46
2021/05/19 08:48:52;;;;;;;2.67;2.40;;;16.60;94.90;;;;;;4899605;29;20119;-48
2021/05/19 08:51:18;;;;;;;3.22;2.00;;;16.60;93.70;;;;;;4899245;29;20036;-45
2021/05/19 08:53:44;;;;;;;2.30;2.10;;;16.50;93.90;;;;;;4899209;29;20032;-47
2021/05/19 08:56:11;;;;;;;5.60;2.40;;;16.40;94.30;;;;;;4899255;29;20058;-47
2021/05/19 08:58:36;;;;;;;2.55;2.20;;;16.40;93.80;;;;;;4882278;29;20410;-47
2021/05/19 09:01:03;;;;;;;2.33;2.00;;;16.50;93.60;;;;;;4899331;29;20036;-47
2021/05/19 09:03:33;;;;;;;6.63;2.80;;;16.70;93.20;;;;;;4898929;29;20024;-46
2021/05/19 09:06:00;;;;;;;3.40;2.15;;;16.70;94.10;;;;;;4899023;29;20563;-45
2021/05/19 09:08:25;;;;;;;4.93;2.20;;;17.00;93.40;;;;;;4898802;29;20036;-47
2021/05/19 09:10:59;;;;;;;3.65;2.78;;;17.40;92.60;;;;;;4899034;29;20033;-42
2021/05/19 09:13:51;;;;;;;3.03;2.08;;;17.90;91.90;;;;;;4898771;29;20160;-48
2021/05/19 09:16:31;;;;;;;2.20;1.85;;;18.30;91.20;;;;;;4895179;29;20115;-45
2021/05/19 09:18:58;;;;;;;2.60;1.80;;;18.60;90.10;;;;;;4899158;29;20618;-49
2021/05/19 09:21:41;;;;;;;2.30;1.83;;;18.60;90.00;;;;;;4897885;29;20111;-47
2021/05/19 09:24:19;;;;;;;3.92;1.90;;;18.40;90.60;;;;;;4898417;29;20029;-47
2021/05/19 09:26:55;;;;;;;3.83;2.20;;;18.00;89.40;;;;;;4897076;29;20035;-49
2021/05/19 09:29:22;;;;;;;1.80;1.70;;;17.50;90.80;;;;;;4898246;29;20061;-48
2021/05/19 09:32:03;;;;;;;3.50;1.90;;;17.30;90.80;;;;;;4898261;29;20050;-44
2021/05/19 09:34:37;;;;;;;5.93;1.85;;;17.30;91.00;;;;;;4898049;29;20063;-44
2021/05/19 09:37:16;;;;;;;1.83;1.42;;;17.60;91.00;;;;;;4898235;29;20025;-42
2021/05/19 09:39:50;;;;;;;1.98;1.75;;;17.70;89.40;;;;;;4897342;29;20024;-42
2021/05/19 09:42:17;;;;;;;2.40;1.55;;;17.40;89.70;;;;;;4898072;29;20048;-40
2021/05/19 09:44:45;;;;;;;2.17;1.80;;;17.60;89.70;;;;;;4897330;29;20482;-45
2021/05/19 09:47:11;;;;;;;3.22;1.48;;;17.70;87.70;;;;;;4898043;29;20398;-46
2021/05/19 09:49:37;;;;;;;3.28;1.65;;;17.50;88.30;;;;;;4898094;29;20032;-39
2021/05/19 09:52:13;;;;;;;1.50;1.40;;;17.70;90.50;;;;;;4896450;29;20031;-43
2021/05/19 09:54:44;;;;;;;2.83;1.45;;;17.90;89.60;;;;;;4898938;29;20032;-44
2021/05/19 09:57:13;;;;;;;1.48;1.38;;;18.10;90.00;;;;;;4896004;29;20025;-46
2021/05/19 09:59:43;;;;;;;3.50;1.30;;;18.30;87.10;;;;;;4916133;29;20055;-46
2021/05/19 10:02:10;;;;;;;3.17;1.17;;;18.50;86.10;;;;;;4908813;29;20024;-48
2021/05/19 10:04:39;;;;;;;3.50;1.10;;;18.60;85.20;;;;;;4892218;29;20111;-46
2021/05/19 10:07:11;;;;;;;2.03;1.45;;;18.20;86.70;;;;;;4914927;29;20075;-46
2021/05/19 10:09:37;;;;;;;2.95;1.77;;;17.70;88.20;;;;;;4916441;29;20028;-46
2021/05/19 10:12:03;;;;;;;2.03;1.55;;;17.40;90.00;;;;;;4899693;29;20038;-54
2021/05/19 10:14:29;;;;;;;2.45;1.30;;;17.20;90.70;;;;;;4919017;29;20115;-42
2021/05/19 10:17:05;;;;;;;2.25;1.52;;;16.90;91.00;;;;;;4918554;29;20035;-49
2021/05/19 10:19:37;;;;;;;0.88;0.88;;;16.70;90.90;;;;;;4916489;29;20123;-48
2021/05/19 10:22:07;;;;;;;2.08;1.10;;;16.40;90.50;;;;;;4916427;29;20024;-50
2021/05/19 10:25:03;;;;;;;1.33;1.02;;;16.10;90.10;;;;;;4916332;29;20024;-43
2021/05/19 10:27:48;;;;;;;2.42;1.00;;;15.90;90.20;;;;;;4915083;29;20064;-46
2021/05/19 10:30:39;;;;;;;1.83;1.05;;;15.80;91.20;;;;;;4916236;29;20110;-44
2021/05/19 10:33:07;;;;;;;1.55;0.98;;;15.70;91.80;;;;;;4898913;29;20035;-47
2021/05/19 10:35:43;;;;;;;2.90;1.25;;;15.80;92.10;;;;;;4916084;29;20024;-48
2021/05/19 10:38:20;;;;;;;1.85;1.25;;;15.80;91.80;;;;;;4916127;29;20034;-44
2021/05/19 10:40:51;;;;;;;2.20;1.13;;;15.80;91.90;;;;;;4899012;29;20167;-43
2021/05/19 10:43:17;;;;;;;3.88;1.85;;;15.90;92.30;;;;;;4915086;29;20043;-46
2021/05/19 10:45:56;;;;;;;1.65;1.30;;;16.20;91.70;;;;;;4915650;29;20482;-45
2021/05/19 10:48:30;;;;;;;1.20;0.93;;;16.40;91.20;;;;;;4915682;29;20036;-46
2021/05/19 10:51:04;;;;;;;1.42;1.00;;;16.50;88.50;;;;;;4915867;29;20024;-46
2021/05/19 10:59:13;;;;;;;1.77;0.90;;;16.80;85.40;;;;;;4915287;29;20107;-50
2021/05/19 11:01:39;;;;;;;4.00;2.55;;;16.90;86.00;;;;;;4898549;29;20131;-47
2021/05/19 11:04:18;;;;;;;1.15;1.05;;;17.00;86.70;;;;;;4914816;29;20107;-47
2021/05/19 11:06:56;;;;;;;1.67;0.93;;;17.10;86.10;;;;;;4915442;29;20369;-47
2021/05/19 11:09:23;;;;;;;4.70;0.93;;;17.30;86.40;;;;;;4898461;29;20168;-52
2021/05/19 11:11:49;;;;;;;2.42;1.00;;;17.40;86.40;;;;;;4915306;29;20115;-45
2021/05/19 11:14:34;;;;;;;5.60;1.20;;;17.30;84.30;;;;;;4915427;29;20071;-43
2021/05/19 11:19:34;;;;;;;3.42;1.00;;;17.20;81.30;;;;;;4915237;29;20532;-44
2021/05/19 11:22:02;;;;;;;1.30;0.93;;;17.20;80.10;;;;;;4915348;29;20024;-44
2021/05/19 11:24:27;;;;;;;3.60;1.85;;;17.30;81.00;;;;;;4915050;29;20061;-44
2021/05/19 11:26:54;;;;;;;2.88;0.98;;;17.40;80.60;;;;;;4914905;29;20048;-44
2021/05/19 11:29:20;;;;;;;1.65;0.60;;;17.40;79.00;;;;;;4914920;29;20516;-44
2021/05/19 11:31:51;;;;;;;0.52;0.47;;;17.50;79.40;;;;;;4914845;29;20032;-45
2021/05/19 11:34:21;;;;;;;2.78;0.98;;;17.50;79.70;;;;;;4914679;29;20402;-45
2021/05/19 11:36:54;;;;;;;3.03;1.00;;;17.60;78.50;;;;;;4915024;29;20028;-43
2021/05/19 11:39:43;;;;;;;4.85;1.27;;;17.70;80.80;;;;;;4914842;29;20024;-44
2021/05/19 11:42:20;;;;;;;2.63;0.80;;;17.60;75.90;;;;;;4914796;29;20032;-48
2021/05/19 11:44:56;;;;;;;1.67;0.70;;;17.60;76.00;;;;;;4914480;29;20060;-44
2021/05/19 11:47:30;;;;;;;1.77;0.90;;;17.50;71.20;;;;;;4914552;29;20398;-44
2021/05/19 11:50:04;;;;;;;2.65;0.73;;;17.40;70.00;;;;;;4914702;29;20024;-45
2021/05/19 11:52:53;;;;;;;1.63;0.93;;;17.30;71.10;;;;;;4914640;29;20024;-47
2021/05/19 11:55:41;;;;;;;2.72;0.88;;;17.10;72.90;;;;;;4914526;29;20056;-47
2021/05/19 11:58:19;;;;;;;4.90;0.60;;;17.10;72.80;;;;;;4914907;29;20061;-49
2021/05/19 12:00:49;;;;;;;4.90;0.98;;;17.00;73.90;;;;;;4914321;29;20028;-42
2021/05/19 12:03:17;;;;;;;4.60;0.80;;;17.10;73.30;;;;;;4914397;29;20035;-49
2021/05/19 12:05:51;;;;;;;2.78;1.08;;;17.20;73.40;;;;;;4914612;29;20032;-46
2021/05/19 12:08:34;;;;;;;2.58;0.93;;;17.40;72.70;;;;;;4914538;29;20513;-47
2021/05/19 12:11:18;;;;;;;4.10;1.02;;;17.50;74.90;;;;;;4914068;29;20087;-47
2021/05/19 12:13:54;;;;;;;2.88;1.10;;;17.70;71.60;;;;;;4913979;29;20030;-46
2021/05/19 12:16:28;;;;;;;4.57;0.95;;;17.70;68.70;;;;;;4917064;29;20104;-44
2021/05/19 12:19:25;;;;;;;6.28;1.67;;;17.90;74.20;;;;;;4903877;29;20070;-50
2021/05/19 12:22:06;;;;;;;1.58;0.82;;;18.00;72.30;;;;;;4920785;29;20028;-45
2021/05/19 12:24:32;;;;;;;1.75;0.63;;;18.10;70.50;;;;;;4903730;29;20557;-51
2021/05/19 12:26:58;;;;;;;1.25;0.75;;;18.10;72.00;;;;;;4921020;29;20063;-47
2021/05/19 12:29:49;;;;;;;2.78;0.75;;;18.00;70.20;;;;;;4921006;29;20497;-47
2021/05/19 12:32:19;;;;;;;3.90;0.57;;;17.80;71.40;;;;;;4920729;29;20027;-48
2021/05/19 12:34:59;;;;;;;5.70;1.23;;;17.90;72.50;;;;;;4920654;29;20087;-47
2021/05/19 12:37:47;;;;;;;2.95;0.90;;;18.00;72.60;;;;;;4920816;29;20499;-48
2021/05/19 12:40:15;;;;;;;2.45;0.80;;;18.00;71.40;;;;;;4920609;29;20051;-44
2021/05/19 12:42:47;;;;;;;3.35;1.10;;;17.80;72.00;;;;;;4903213;29;20031;-45
2021/05/19 12:45:14;;;;;;;1.70;0.93;;;17.70;75.00;;;;;;4920576;29;20024;-49
2021/05/19 12:47:40;;;;;;;2.67;1.10;;;17.70;76.90;;;;;;4920603;29;20032;-47
2021/05/19 12:50:08;;;;;;;1.63;0.80;;;17.70;76.10;;;;;;4920652;29;20035;-45
2021/05/19 12:52:35;;;;;;;4.68;1.02;;;17.80;78.70;;;;;;4903603;29;20572;-43
2021/05/19 12:55:05;;;;;;;2.78;1.00;;;17.90;78.70;;;;;;4920130;29;20062;-49
2021/05/19 12:57:35;;;;;;;1.05;0.65;;;18.00;76.70;;;;;;4920707;29;20091;-43
2021/05/19 13:00:03;;;;;;;4.07;0.90;;;18.10;76.30;;;;;;4920434;29;20032;-47
2021/05/19 13:02:41;;;;;;;3.47;0.73;;;18.00;73.60;;;;;;4904581;29;20032;-50
2021/05/19 13:05:23;;;;;;;0.88;0.80;;;18.10;73.40;;;;;;4922504;29;20160;-45